Time;durP1;ratioP1;P1;durP2;ratioP2;P2;SDS_P1;SDS_P2;PMS_P1;PMS_P2;Temp;Humidity;BMP_temperature;BMP_pressure;BME280_temperature;BME280_humidity;BME280_pressure;Samples;Min_cycle;Max_cycle;Signal;HPM_P1;HPM_P2
2022/08/05 00:00:53;;;;;;;;;;;;;;;23.63;47.63;99760.97;4362931;32;35117;-75
2022/08/05 00:03:20;;;;;;;;;;;;;;;23.39;48.13;99767.97;4362590;32;34596;-72
2022/08/05 00:05:47;;;;;;;;;;;;;;;23.53;47.73;99760.22;4373327;32;34638;-69
2022/08/05 00:08:35;;;;;;;;;;;;;;;23.73;47.02;99753.06;4376784;32;33619;-75
2022/08/05 00:11:04;;;;;;;;;;;;;;;23.95;46.39;99751.13;4364077;32;34685;-71
2022/08/05 00:13:47;;;;;;;;;;;;;;;23.51;46.94;99756.97;4365648;32;35394;-72
2022/08/05 00:16:19;;;;;;;;;;;;;;;23.74;47.13;99760.25;4377279;32;35274;-76
2022/08/05 00:19:02;;;;;;;;;;;;;;;23.30;47.98;99761.66;4365297;32;33680;-75
2022/08/05 00:21:30;;;;;;;;;;;;;;;23.31;47.76;99755.78;4364124;32;33777;-71
2022/08/05 00:24:02;;;;;;;;;;;;;;;23.25;48.34;99757.13;4377617;32;34439;-70
2022/08/05 00:26:37;;;;;;;;;;;;;;;22.85;48.96;99762.97;4377552;32;34343;-71
2022/08/05 00:29:09;;;;;;;;;;;;;;;23.27;47.89;99759.56;4376695;32;33870;-71
2022/08/05 00:31:36;;;;;;;;;;;;;;;23.75;46.80;99759.09;4377719;32;34284;-70
2022/08/05 00:34:24;;;;;;;;;;;;;;;23.52;47.12;99757.75;4365971;32;34521;-73
2022/08/05 00:37:11;;;;;;;;;;;;;;;23.42;47.17;99758.97;4377349;32;35229;-70
2022/08/05 00:39:43;;;;;;;;;;;;;;;23.52;46.04;99761.38;4363533;32;32325;-74
2022/08/05 00:42:28;;;;;;;;;;;;;;;22.79;47.75;99760.72;4377302;32;34421;-74
2022/08/05 00:44:58;;;;;;;;;;;;;;;23.25;46.70;99751.56;4377440;32;35352;-71
2022/08/05 00:47:26;;;;;;;;;;;;;;;23.41;45.77;99751.00;4376432;32;35187;-72
2022/08/05 00:50:13;;;;;;;;;;;;;;;23.37;46.07;99758.34;4377053;32;34196;-73
2022/08/05 00:52:41;;;;;;;;;;;;;;;22.89;47.72;99752.88;4377282;32;34297;-69
2022/08/05 00:55:12;;;;;;;;;;;;;;;23.50;46.44;99747.03;4377155;32;33997;-71
2022/08/05 00:57:41;;;;;;;;;;;;;;;23.41;46.11;99749.06;4376745;32;34461;-73
2022/08/05 01:00:25;;;;;;;;;;;;;;;23.44;46.21;99751.16;4377009;32;33397;-72
2022/08/05 01:02:54;;;;;;;;;;;;;;;23.56;46.04;99739.34;4377659;32;34319;-72
2022/08/05 01:05:22;;;;;;;;;;;;;;;23.26;46.39;99746.84;4377292;32;34293;-70
2022/08/05 01:07:49;;;;;;;;;;;;;;;23.66;45.44;99747.25;4376266;32;35603;-73
2022/08/05 01:11:00;;;;;;;;;;;;;;;23.61;45.45;99736.38;4377147;32;33437;-70
2022/08/05 01:13:31;;;;;;;;;;;;;;;23.41;45.80;99749.06;4372369;32;34387;-73
2022/08/05 01:16:48;;;;;;;;;;;;;;;23.30;45.88;99745.88;4365896;32;34552;-75
2022/08/05 01:19:21;;;;;;;;;;;;;;;23.05;46.83;99744.03;4366660;32;34537;-72
2022/08/05 01:22:15;;;;;;;;;;;;;;;22.90;47.16;99748.13;4376993;32;34817;-69
2022/08/05 01:25:02;;;;;;;;;;;;;;;22.81;46.03;99739.88;4377323;32;34980;-69
2022/08/05 01:27:49;;;;;;;;;;;;;;;23.11;46.74;99742.72;4363006;32;34404;-71
2022/08/05 01:30:21;;;;;;;;;;;;;;;23.08;46.83;99746.12;4376791;32;34509;-70
2022/08/05 01:33:04;;;;;;;;;;;;;;;22.57;47.49;99736.84;4364622;32;33539;-70
2022/08/05 01:35:35;;;;;;;;;;;;;;;22.81;46.92;99744.59;4363120;32;34570;-70
2022/08/05 01:38:19;;;;;;;;;;;;;;;23.02;46.17;99753.00;4375862;32;35781;-70
2022/08/05 01:40:58;;;;;;;;;;;;;;;23.03;46.22;99746.31;4364804;32;34530;-71
2022/08/05 01:43:27;;;;;;;;;;;;;;;23.06;46.71;99746.44;4376548;32;33468;-68
2022/08/05 01:45:54;;;;;;;;;;;;;;;23.08;46.26;99760.78;4376750;32;35101;-66
2022/08/05 01:48:24;;;;;;;;;;;;;;;23.03;46.52;99751.84;4376316;32;34302;-68
2022/08/05 01:50:51;;;;;;;;;;;;;;;23.07;46.68;99753.62;4363078;32;34325;-67
2022/08/05 01:53:20;;;;;;;;;;;;;;;23.04;47.13;99761.78;4363039;32;32961;-68
2022/08/05 01:56:07;;;;;;;;;;;;;;;23.15;47.26;99754.72;4364921;32;35456;-67
2022/08/05 01:58:35;;;;;;;;;;;;;;;22.90;47.54;99748.94;4376128;32;34380;-67
2022/08/05 02:01:17;;;;;;;;;;;;;;;22.91;47.91;99755.28;4378105;32;34355;-67
2022/08/05 02:03:51;;;;;;;;;;;;;;;23.03;47.54;99760.16;4365886;32;33454;-68
2022/08/05 02:06:18;;;;;;;;;;;;;;;22.85;47.92;99748.31;4364953;32;35157;-67
2022/08/05 02:09:05;;;;;;;;;;;;;;;23.02;48.03;99741.91;4377480;32;34462;-68
2022/08/05 02:11:39;;;;;;;;;;;;;;;23.08;47.38;99749.69;4378383;32;34376;-66
2022/08/05 02:14:16;;;;;;;;;;;;;;;22.73;48.02;99743.47;4365927;32;33715;-67
2022/08/05 02:16:45;;;;;;;;;;;;;;;23.08;47.37;99746.94;4364943;32;34083;-68
2022/08/05 02:19:27;;;;;;;;;;;;;;;22.69;47.82;99745.28;4364768;32;34041;-67
2022/08/05 02:22:02;;;;;;;;;;;;;;;22.66;47.84;99743.19;4378553;32;34581;-70
2022/08/05 02:24:35;;;;;;;;;;;;;;;22.93;47.49;99747.47;4364676;32;33481;-67
2022/08/05 02:27:03;;;;;;;;;;;;;;;22.45;48.53;99740.28;4364422;32;34892;-67
2022/08/05 02:29:37;;;;;;;;;;;;;;;22.85;48.32;99743.59;4365070;32;34303;-66
2022/08/05 02:32:25;;;;;;;;;;;;;;;22.96;47.54;99737.69;4367227;32;34264;-68
2022/08/05 02:40:46;;;;;;;;;;;;;;;22.78;47.90;99737.75;4361798;32;34641;-67
2022/08/05 02:43:14;;;;;;;;;;;;;;;22.82;47.44;99735.94;4349332;32;34563;-68
2022/08/05 02:45:42;;;;;;;;;;;;;;;22.82;47.32;99738.72;4363501;32;33489;-68
2022/08/05 02:48:21;;;;;;;;;;;;;;;22.68;47.93;99740.91;4362719;32;34352;-67
2022/08/05 02:50:57;;;;;;;;;;;;;;;22.77;47.35;99738.91;4362125;32;35180;-68
2022/08/05 02:53:24;;;;;;;;;;;;;;;22.53;47.80;99742.25;4362031;32;34566;-68
2022/08/05 02:55:54;;;;;;;;;;;;;;;22.58;48.18;99741.25;4362024;32;33670;-69
2022/08/05 02:58:28;;;;;;;;;;;;;;;22.59;48.28;99734.56;4348510;32;34783;-67
2022/08/05 03:00:58;;;;;;;;;;;;;;;22.64;47.83;99740.75;4335278;33;35278;-68
2022/08/05 03:03:25;;;;;;;;;;;;;;;22.67;47.92;99734.53;4335113;33;34367;-68
2022/08/05 03:06:00;;;;;;;;;;;;;;;22.81;46.88;99730.78;4335787;33;33531;-68
2022/08/05 03:08:50;;;;;;;;;;;;;;;22.31;47.87;99733.00;4336351;33;34993;-69
2022/08/05 03:11:22;;;;;;;;;;;;;;;22.27;48.72;99726.50;4336986;32;35168;-69
2022/08/05 03:14:09;;;;;;;;;;;;;;;22.22;48.67;99718.37;4362125;32;34574;-67
2022/08/05 03:16:39;;;;;;;;;;;;;;;22.37;48.76;99721.78;4363144;32;33774;-67
2022/08/05 03:19:07;;;;;;;;;;;;;;;22.29;48.85;99720.66;4362439;32;34019;-68
2022/08/05 03:21:55;;;;;;;;;;;;;;;22.32;48.91;99718.03;4362259;32;34475;-66
2022/08/05 03:24:24;;;;;;;;;;;;;;;22.24;49.30;99718.84;4363006;32;34784;-68
2022/08/05 03:26:57;;;;;;;;;;;;;;;22.18;49.62;99713.81;4353999;32;33413;-67
2022/08/05 03:29:25;;;;;;;;;;;;;;;22.25;49.60;99716.94;4334613;33;34104;-67
2022/08/05 03:32:14;;;;;;;;;;;;;;;22.29;49.51;99717.91;4336844;33;35221;-67
2022/08/05 03:34:41;;;;;;;;;;;;;;;22.11;50.09;99719.81;4334929;33;35199;-69
2022/08/05 03:37:19;;;;;;;;;;;;;;;22.40;49.52;99716.41;4335572;33;33578;-67
2022/08/05 03:39:56;;;;;;;;;;;;;;;22.42;49.43;99716.88;4334614;33;34095;-67
2022/08/05 03:42:28;;;;;;;;;;;;;;;22.19;50.12;99712.69;4347177;32;34364;-68
2022/08/05 03:44:59;;;;;;;;;;;;;;;22.41;49.71;99712.50;4363007;32;34130;-67
2022/08/05 03:47:29;;;;;;;;;;;;;;;22.43;49.78;99715.75;4362494;32;33356;-68
2022/08/05 03:50:01;;;;;;;;;;;;;;;22.37;50.27;99713.47;4363107;32;34282;-68
2022/08/05 03:52:31;;;;;;;;;;;;;;;22.35;50.60;99713.81;4362982;32;34217;-67
2022/08/05 03:55:21;;;;;;;;;;;;;;;22.51;50.23;99717.66;4361122;32;34303;-68
2022/08/05 03:58:10;;;;;;;;;;;;;;;22.67;50.08;99712.41;4335981;33;33719;-68
2022/08/05 04:00:37;;;;;;;;;;;;;;;22.80;50.17;99718.87;4334671;33;34241;-67
2022/08/05 04:03:08;;;;;;;;;;;;;;;22.90;49.80;99717.72;4334875;33;33799;-70
2022/08/05 04:05:52;;;;;;;;;;;;;;;22.98;50.03;99716.03;4348010;33;34319;-75
2022/08/05 04:08:20;;;;;;;;;;;;;;;23.11;49.47;99718.63;4336078;32;33611;-68
2022/08/05 04:11:03;;;;;;;;;;;;;;;23.16;49.15;99720.38;4362035;32;34275;-76
2022/08/05 04:13:30;;;;;;;;;;;;;;;23.22;49.16;99718.22;4361611;32;35444;-67
2022/08/05 04:16:17;;;;;;;;;;;;;;;23.43;49.16;99723.78;4361837;32;34372;-72
2022/08/05 04:18:58;;;;;;;;;;;;;;;23.91;47.73;99722.50;4360920;32;33691;-70
2022/08/05 04:21:26;;;;;;;;;;;;;;;24.23;46.64;99720.06;4362480;32;35159;-69
2022/08/05 04:24:14;;;;;;;;;;;;;;;24.44;46.94;99712.50;4351096;32;35419;-71
2022/08/05 04:26:48;;;;;;;;;;;;;;;24.35;45.41;99715.38;4334980;33;35192;-69
2022/08/05 04:29:16;;;;;;;;;;;;;;;24.36;47.83;99719.78;4333910;33;34408;-69
2022/08/05 04:31:43;;;;;;;;;;;;;;;24.70;46.85;99720.56;4347628;33;34134;-74
2022/08/05 04:34:14;;;;;;;;;;;;;;;25.06;46.34;99720.97;4347919;33;35126;-69
2022/08/05 04:37:00;;;;;;;;;;;;;;;25.39;45.71;99718.06;4347450;33;35216;-71
2022/08/05 04:39:29;;;;;;;;;;;;;;;25.44;43.73;99714.25;4347902;32;33539;-74
2022/08/05 04:41:58;;;;;;;;;;;;;;;25.81;43.75;99714.16;4334402;33;34165;-70
2022/08/05 04:44:25;;;;;;;;;;;;;;;25.71;43.84;99713.50;4347530;33;34535;-69
2022/08/05 04:46:59;;;;;;;;;;;;;;;26.17;42.92;99719.59;4347560;33;34157;-70
2022/08/05 04:49:39;;;;;;;;;;;;;;;26.52;42.29;99716.19;4326476;33;33621;-73
2022/08/05 04:52:26;;;;;;;;;;;;;;;26.91;41.25;99721.16;4348018;32;33898;-68
2022/08/05 04:54:54;;;;;;;;;;;;;;;27.27;39.46;99722.06;4361764;32;34435;-70
2022/08/05 04:57:24;;;;;;;;;;;;;;;26.99;40.28;99725.75;4360635;32;34443;-71
2022/08/05 04:59:56;;;;;;;;;;;;;;;27.41;39.69;99720.41;4360730;32;33435;-67
2022/08/05 05:02:25;;;;;;;;;;;;;;;27.42;39.88;99726.78;4360738;32;33982;-71
2022/08/05 05:05:07;;;;;;;;;;;;;;;27.45;38.28;99717.72;4360495;32;34401;-72
2022/08/05 05:07:54;;;;;;;;;;;;;;;27.23;37.85;99721.16;4360822;32;35299;-69
2022/08/05 05:10:27;;;;;;;;;;;;;;;27.04;38.44;99719.91;4333452;32;35033;-73
2022/08/05 05:12:56;;;;;;;;;;;;;;;27.39;37.43;99716.38;4346294;32;33996;-72
2022/08/05 05:15:24;;;;;;;;;;;;;;;27.40;37.18;99720.78;4346628;33;35223;-69
2022/08/05 05:18:13;;;;;;;;;;;;;;;27.05;38.15;99715.16;4335533;33;34628;-77
2022/08/05 05:20:42;;;;;;;;;;;;;;;27.55;36.94;99717.13;4346377;33;33983;-73
2022/08/05 05:23:12;;;;;;;;;;;;;;;27.07;37.76;99718.37;4333822;33;34183;-70
2022/08/05 05:25:46;;;;;;;;;;;;;;;27.37;37.40;99721.50;4333831;33;33967;-70
2022/08/05 05:28:14;;;;;;;;;;;;;;;26.87;38.38;99723.88;4346721;33;34364;-71
2022/08/05 05:30:41;;;;;;;;;;;;;;;26.44;39.70;99710.81;4346651;33;33472;-75
2022/08/05 05:33:15;;;;;;;;;;;;;;;26.69;39.79;99717.03;4346915;33;34374;-70
2022/08/05 05:35:49;;;;;;;;;;;;;;;27.41;37.67;99711.25;4346084;33;34288;-71
2022/08/05 05:38:18;;;;;;;;;;;;;;;27.42;37.98;99710.87;4346384;33;34559;-74
2022/08/05 05:40:54;;;;;;;;;;;;;;;27.39;37.96;99708.03;4334241;33;34327;-72
2022/08/05 05:43:22;;;;;;;;;;;;;;;27.50;38.53;99713.84;4333095;33;34199;-71
2022/08/05 05:46:09;;;;;;;;;;;;;;;27.42;37.94;99710.06;4345998;33;34307;-72
2022/08/05 05:48:44;;;;;;;;;;;;;;;27.53;38.06;99708.34;4345895;33;34404;-76
2022/08/05 05:51:23;;;;;;;;;;;;;;;27.39;38.35;99716.38;4333469;33;32944;-74
2022/08/05 05:53:53;;;;;;;;;;;;;;;27.47;37.42;99703.41;4331671;33;34240;-71
2022/08/05 05:56:29;;;;;;;;;;;;;;;28.22;37.19;99710.59;4342031;33;35175;-71
2022/08/05 05:59:04;;;;;;;;;;;;;;;27.91;36.39;99703.19;4341629;33;34321;-76
2022/08/05 06:01:37;;;;;;;;;;;;;;;28.76;36.13;99706.00;4342773;33;33635;-77
2022/08/05 06:04:10;;;;;;;;;;;;;;;28.35;36.26;99702.84;4352196;32;35182;-72
2022/08/05 06:06:39;;;;;;;;;;;;;;;28.59;35.38;99702.53;4361076;32;33973;-72
2022/08/05 06:09:08;;;;;;;;;;;;;;;28.58;35.35;99711.28;4346833;32;34658;-73
2022/08/05 06:11:44;;;;;;;;;;;;;;;28.72;35.13;99703.16;4346888;33;33712;-73
2022/08/05 06:14:31;;;;;;;;;;;;;;;29.36;34.35;99705.38;4330584;33;34036;-72
2022/08/05 06:17:00;;;;;;;;;;;;;;;28.60;35.01;99694.97;4331205;33;34650;-73
2022/08/05 06:19:48;;;;;;;;;;;;;;;29.24;34.49;99710.03;4332365;33;35111;-72
2022/08/05 06:22:29;;;;;;;;;;;;;;;29.74;34.07;99711.91;4342039;32;33724;-73
2022/08/05 06:25:00;;;;;;;;;;;;;;;29.97;33.65;99712.59;4346499;33;35411;-74
2022/08/05 06:27:48;;;;;;;;;;;;;;;30.55;31.71;99710.47;4334547;33;34199;-74
2022/08/05 06:30:35;;;;;;;;;;;;;;;30.53;31.36;99713.66;4345777;33;33716;-72
2022/08/05 06:33:02;;;;;;;;;;;;;;;30.76;31.03;99705.06;4345972;33;34588;-73
2022/08/05 06:35:30;;;;;;;;;;;;;;;31.16;29.04;99706.19;4346304;33;33711;-72
2022/08/05 06:38:17;;;;;;;;;;;;;;;31.14;29.53;99711.37;4334316;33;35107;-73
2022/08/05 06:41:03;;;;;;;;;;;;;;;30.45;30.42;99710.00;4346232;33;34525;-74
2022/08/05 06:43:30;;;;;;;;;;;;;;;31.23;27.63;99706.28;4332594;33;33314;-74
2022/08/05 06:46:17;;;;;;;;;;;;;;;32.07;26.51;99709.16;4346829;33;34235;-72
2022/08/05 06:48:45;;;;;;;;;;;;;;;32.82;26.25;99707.69;4333462;33;35161;-72
2022/08/05 06:51:22;;;;;;;;;;;;;;;33.61;23.55;99711.28;4336005;33;34153;-73
2022/08/05 06:53:58;;;;;;;;;;;;;;;33.56;22.85;99708.03;4347042;33;33551;-73
2022/08/05 06:56:26;;;;;;;;;;;;;;;33.75;22.53;99713.22;4334414;33;32895;-74
2022/08/05 06:58:54;;;;;;;;;;;;;;;32.55;23.73;99696.03;4347662;33;35358;-73
2022/08/05 07:01:21;;;;;;;;;;;;;;;32.69;23.87;99707.28;4347881;33;33958;-73
2022/08/05 07:03:48;;;;;;;;;;;;;;;33.76;21.79;99703.59;4348359;33;33753;-74
2022/08/05 07:06:16;;;;;;;;;;;;;;;34.06;22.42;99710.66;4348208;33;34408;-80
2022/08/05 07:08:46;;;;;;;;;;;;;;;34.23;22.95;99714.62;4347133;33;34363;-78
2022/08/05 07:11:20;;;;;;;;;;;;;;;35.13;21.52;99724.09;4346642;33;35233;-80
2022/08/05 07:16:48;;;;;;;;;;;;;;;35.84;20.98;99715.31;4347688;33;34124;-74
2022/08/05 07:19:36;;;;;;;;;;;;;;;35.08;21.47;99718.87;4347808;33;35419;-79
2022/08/05 07:22:23;;;;;;;;;;;;;;;34.10;21.90;99717.09;4336254;33;33974;-75
2022/08/05 07:24:57;;;;;;;;;;;;;;;34.09;22.73;99716.28;4347723;33;34237;-75
2022/08/05 07:27:24;;;;;;;;;;;;;;;34.36;22.13;99712.16;4347551;33;33589;-72
2022/08/05 07:30:11;;;;;;;;;;;;;;;33.55;23.36;99707.22;4347834;33;34565;-73
2022/08/05 07:32:56;;;;;;;;;;;;;;;33.75;23.36;99709.59;4347599;33;35339;-71
2022/08/05 07:35:24;;;;;;;;;;;;;;;32.80;23.65;99701.69;4347722;33;33682;-69
2022/08/05 07:38:12;;;;;;;;;;;;;;;32.73;24.15;99710.13;4335968;33;34160;-70
2022/08/05 07:40:59;;;;;;;;;;;;;;;32.38;25.70;99706.81;4347588;33;34455;-70
2022/08/05 07:43:46;;;;;;;;;;;;;;;32.14;26.44;99702.75;4346230;32;35043;-70
2022/08/05 07:46:14;;;;;;;;;;;;;;;32.43;25.49;99698.00;4347825;33;34369;-69
2022/08/05 07:48:54;;;;;;;;;;;;;;;32.12;25.04;99699.56;4347440;33;34906;-71
2022/08/05 07:51:34;;;;;;;;;;;;;;;32.47;25.97;99698.03;4335186;33;34310;-71
2022/08/05 07:54:07;;;;;;;;;;;;;;;32.57;25.35;99696.44;4334484;33;35088;-72
2022/08/05 07:56:37;;;;;;;;;;;;;;;32.26;25.40;99698.78;4330514;32;34442;-68
2022/08/05 07:59:24;;;;;;;;;;;;;;;32.45;25.09;99695.59;4346939;33;35292;-69
2022/08/05 08:02:08;;;;;;;;;;;;;;;32.08;25.42;99702.34;4347626;33;34257;-69
2022/08/05 08:04:47;;;;;;;;;;;;;;;32.75;26.68;99702.88;4335199;32;34161;-69
2022/08/05 08:07:16;;;;;;;;;;;;;;;32.40;25.70;99698.00;4334075;33;33414;-69
2022/08/05 08:09:45;;;;;;;;;;;;;;;32.34;25.95;99694.78;4346774;33;33134;-69
2022/08/05 08:12:15;;;;;;;;;;;;;;;33.00;24.74;99702.06;4333478;33;34199;-70
2022/08/05 08:15:02;;;;;;;;;;;;;;;33.16;23.97;99694.06;4347624;33;34322;-71
2022/08/05 08:17:31;;;;;;;;;;;;;;;32.14;25.12;99696.31;4347494;33;33654;-70
2022/08/05 08:19:58;;;;;;;;;;;;;;;32.56;24.67;99697.66;4334069;33;35030;-70
2022/08/05 08:22:49;;;;;;;;;;;;;;;32.46;25.20;99694.41;4336291;33;35186;-70
2022/08/05 08:25:17;;;;;;;;;;;;;;;33.20;24.27;99697.69;4347892;33;34245;-70
2022/08/05 08:28:04;;;;;;;;;;;;;;;33.02;24.64;99700.44;4347229;33;34186;-70
2022/08/05 08:30:43;;;;;;;;;;;;;;;33.47;24.06;99691.59;4334348;33;34150;-69
2022/08/05 08:33:16;;;;;;;;;;;;;;;33.06;24.43;99692.03;4347428;33;35379;-67
2022/08/05 08:35:45;;;;;;;;;;;;;;;33.34;24.61;99691.22;4347857;33;34265;-68
2022/08/05 08:38:21;;;;;;;;;;;;;;;33.60;23.89;99689.97;4346687;33;34285;-67
2022/08/05 08:41:04;;;;;;;;;;;;;;;33.82;24.33;99687.06;4347632;33;34410;-67
2022/08/05 08:43:32;;;;;;;;;;;;;;;33.51;24.33;99698.00;4347360;33;35329;-66
2022/08/05 08:46:20;;;;;;;;;;;;;;;34.00;24.34;99689.81;4336643;33;34625;-67
2022/08/05 08:48:48;;;;;;;;;;;;;;;34.33;23.60;99690.44;4333656;33;33873;-67
2022/08/05 08:51:35;;;;;;;;;;;;;;;34.33;24.22;99696.09;4336283;33;34941;-67
2022/08/05 08:54:23;;;;;;;;;;;;;;;33.91;23.92;99693.88;4336495;33;34592;-70
2022/08/05 08:56:53;;;;;;;;;;;;;;;34.02;24.00;99693.81;4334417;33;35164;-69
2022/08/05 08:59:22;;;;;;;;;;;;;;;33.86;23.86;99696.28;4345935;33;33188;-70
2022/08/05 09:01:53;;;;;;;;;;;;;;;32.98;25.47;99688.44;4334496;33;34346;-68
2022/08/05 09:04:27;;;;;;;;;;;;;;;34.04;23.23;99691.38;4334701;33;35376;-75
2022/08/05 09:06:57;;;;;;;;;;;;;;;33.97;24.23;99688.59;4333746;33;34398;-66
2022/08/05 09:09:24;;;;;;;;;;;;;;;34.05;23.36;99690.16;4346488;33;33752;-67
2022/08/05 09:12:02;;;;;;;;;;;;;;;34.07;23.84;99684.12;4347397;33;34471;-65
2022/08/05 09:14:47;;;;;;;;;;;;;;;34.33;23.58;99685.62;4347255;33;34314;-68
2022/08/05 09:17:25;;;;;;;;;;;;;;;34.50;22.88;99681.06;4335246;33;34176;-66
2022/08/05 09:20:12;;;;;;;;;;;;;;;33.22;25.03;99680.37;4346812;33;34061;-65
2022/08/05 09:23:03;;;;;;;;;;;;;;;33.50;25.11;99679.53;4347741;33;34513;-65
2022/08/05 09:25:33;;;;;;;;;;;;;;;34.18;24.41;99670.81;4342925;32;34546;-67
2022/08/05 09:28:23;;;;;;;;;;;;;;;34.41;23.96;99673.09;4346499;33;34322;-68
2022/08/05 09:31:04;;;;;;;;;;;;;;;34.57;23.18;99660.50;4347048;33;33533;-68
2022/08/05 09:33:52;;;;;;;;;;;;;;;34.96;22.94;99663.00;4346784;33;34066;-67
2022/08/05 09:36:20;;;;;;;;;;;;;;;35.01;22.88;99665.37;4346987;33;35197;-69
2022/08/05 09:38:57;;;;;;;;;;;;;;;35.15;22.83;99663.66;4346426;33;34647;-68
2022/08/05 09:41:25;;;;;;;;;;;;;;;34.85;22.89;99656.66;4346529;33;33821;-67
2022/08/05 09:43:59;;;;;;;;;;;;;;;35.30;21.30;99657.44;4346894;33;34391;-67
2022/08/05 09:46:32;;;;;;;;;;;;;;;34.93;21.57;99658.19;4347080;33;34554;-67
2022/08/05 09:49:06;;;;;;;;;;;;;;;35.03;23.35;99648.81;4345937;33;34630;-67
2022/08/05 09:51:45;;;;;;;;;;;;;;;34.42;23.27;99643.69;4335078;33;34019;-69
2022/08/05 09:54:16;;;;;;;;;;;;;;;35.10;23.18;99643.13;4346265;33;34399;-68
2022/08/05 09:56:55;;;;;;;;;;;;;;;35.08;21.98;99653.22;4334170;33;34257;-69
2022/08/05 09:59:27;;;;;;;;;;;;;;;34.44;21.80;99638.44;4346255;33;34495;-69
2022/08/05 10:02:00;;;;;;;;;;;;;;;34.29;23.52;99634.94;4341440;32;33877;-68
2022/08/05 10:04:35;;;;;;;;;;;;;;;34.77;21.96;99638.22;4350829;32;34132;-69
2022/08/05 10:07:07;;;;;;;;;;;;;;;35.19;21.72;99634.19;4346466;33;34594;-67
2022/08/05 10:09:56;;;;;;;;;;;;;;;34.60;21.96;99629.50;4345859;33;34333;-70
2022/08/05 10:12:42;;;;;;;;;;;;;;;35.11;21.74;99638.28;4346394;33;33702;-68
2022/08/05 10:15:18;;;;;;;;;;;;;;;35.37;21.23;99625.53;4346442;33;34551;-67
2022/08/05 10:18:05;;;;;;;;;;;;;;;34.83;21.40;99622.47;4332597;33;34108;-68
2022/08/05 10:20:34;;;;;;;;;;;;;;;34.95;21.96;99616.31;4346358;33;35961;-68
2022/08/05 10:23:01;;;;;;;;;;;;;;;35.38;21.62;99615.03;4334821;33;34443;-68
2022/08/05 10:25:29;;;;;;;;;;;;;;;35.15;21.19;99616.53;4348008;33;33863;-73
2022/08/05 10:27:57;;;;;;;;;;;;;;;35.80;21.05;99610.91;4337155;33;35392;-67
2022/08/05 10:30:43;;;;;;;;;;;;;;;35.86;20.27;99614.06;4345512;32;34472;-68
2022/08/05 10:33:31;;;;;;;;;;;;;;;34.51;22.71;99603.78;4347564;33;33554;-68
2022/08/05 10:36:04;;;;;;;;;;;;;;;34.80;22.07;99604.37;4347959;33;34962;-67
2022/08/05 10:38:32;;;;;;;;;;;;;;;35.16;21.54;99603.22;4347546;33;34455;-67
2022/08/05 10:41:06;;;;;;;;;;;;;;;35.15;24.22;99601.62;4333811;33;33757;-67
2022/08/05 10:43:34;;;;;;;;;;;;;;;35.65;21.57;99598.22;4346369;33;33556;-68
2022/08/05 10:46:04;;;;;;;;;;;;;;;36.07;21.39;99602.44;4347749;33;34265;-69
2022/08/05 10:48:38;;;;;;;;;;;;;;;35.63;20.08;99597.81;4347476;33;35068;-66
2022/08/05 10:51:24;;;;;;;;;;;;;;;35.35;20.72;99598.97;4347811;33;35106;-69
2022/08/05 10:53:56;;;;;;;;;;;;;;;35.39;20.13;99596.91;4355246;32;33622;-69
2022/08/05 10:56:28;;;;;;;;;;;;;;;35.39;20.12;99588.44;4350613;32;34174;-71
2022/08/05 10:58:58;;;;;;;;;;;;;;;35.57;20.17;99586.16;4343407;32;34297;-69
2022/08/05 11:01:41;;;;;;;;;;;;;;;35.53;20.22;99599.53;4347695;33;34737;-71
2022/08/05 11:04:28;;;;;;;;;;;;;;;35.18;20.93;99584.66;4336532;33;33512;-68
2022/08/05 11:06:59;;;;;;;;;;;;;;;35.30;20.79;99578.47;4347835;33;34165;-70
2022/08/05 11:09:27;;;;;;;;;;;;;;;35.17;21.03;99576.63;4347501;33;35033;-69
2022/08/05 11:12:20;;;;;;;;;;;;;;;35.96;20.92;99575.59;4336187;33;34289;-70
2022/08/05 11:15:08;;;;;;;;;;;;;;;36.16;20.53;99587.00;4347611;33;33244;-69
2022/08/05 11:17:52;;;;;;;;;;;;;;;36.29;20.32;99580.34;4347280;33;34673;-68
2022/08/05 11:20:38;;;;;;;;;;;;;;;35.65;20.79;99575.63;4334050;33;33460;-67
2022/08/05 11:23:28;;;;;;;;;;;;;;;36.19;19.15;99580.50;4347726;33;34687;-70
2022/08/05 11:26:16;;;;;;;;;;;;;;;35.81;19.51;99569.34;4347118;32;34573;-69
2022/08/05 11:28:55;;;;;;;;;;;;;;;36.16;19.82;99570.06;4347074;33;34064;-67
2022/08/05 11:31:26;;;;;;;;;;;;;;;35.76;19.15;99569.84;4334220;33;35426;-71
2022/08/05 11:34:14;;;;;;;;;;;;;;;36.17;19.28;99561.16;4347504;33;34402;-71
2022/08/05 11:36:50;;;;;;;;;;;;;;;35.84;18.83;99566.47;4347167;33;33094;-68
2022/08/05 11:39:38;;;;;;;;;;;;;;;36.24;19.95;99563.84;4347011;33;34126;-68
2022/08/05 11:42:14;;;;;;;;;;;;;;;36.43;20.50;99567.19;4346835;33;35325;-69
2022/08/05 11:44:44;;;;;;;;;;;;;;;35.44;20.32;99565.41;4334544;33;34437;-68
2022/08/05 11:47:23;;;;;;;;;;;;;;;35.76;19.25;99555.72;4334725;33;33080;-66
2022/08/05 11:50:10;;;;;;;;;;;;;;;35.43;20.96;99570.25;4347257;33;34266;-69
2022/08/05 11:52:40;;;;;;;;;;;;;;;35.12;20.51;99566.59;4334312;33;34356;-68
2022/08/05 11:55:12;;;;;;;;;;;;;;;34.56;21.03;99572.38;4347120;33;34415;-70
2022/08/05 11:57:44;;;;;;;;;;;;;;;34.89;20.83;99568.03;4347032;33;33292;-69
2022/08/05 12:00:34;;;;;;;;;;;;;;;34.58;20.54;99558.66;4347560;33;34218;-67
2022/08/05 12:03:14;;;;;;;;;;;;;;;35.06;20.26;99563.41;4347288;33;34335;-68
2022/08/05 12:06:00;;;;;;;;;;;;;;;34.86;20.23;99559.59;4335328;33;35233;-68
2022/08/05 12:08:28;;;;;;;;;;;;;;;34.39;21.43;99554.41;4334074;33;35019;-70
2022/08/05 12:10:59;;;;;;;;;;;;;;;34.49;21.38;99555.50;4347035;33;33585;-70
2022/08/05 12:13:32;;;;;;;;;;;;;;;34.64;20.95;99554.19;4331216;33;35407;-67
2022/08/05 12:16:19;;;;;;;;;;;;;;;34.13;22.00;99550.19;4342835;32;34300;-70
2022/08/05 12:18:53;;;;;;;;;;;;;;;34.14;21.64;99551.78;4319916;33;33683;-69
2022/08/05 12:21:22;;;;;;;;;;;;;;;34.47;21.27;99543.84;4338510;33;34212;-71
2022/08/05 12:23:51;;;;;;;;;;;;;;;34.27;20.52;99547.25;4333741;33;33882;-65
2022/08/05 12:26:18;;;;;;;;;;;;;;;34.76;21.28;99538.78;4347357;33;34483;-67
2022/08/05 12:28:45;;;;;;;;;;;;;;;35.04;20.83;99540.47;4346518;33;33635;-71
2022/08/05 12:31:15;;;;;;;;;;;;;;;35.50;21.17;99539.09;4345617;32;34805;-69
2022/08/05 12:34:00;;;;;;;;;;;;;;;35.91;20.17;99540.16;4347000;33;35406;-68
2022/08/05 12:36:29;;;;;;;;;;;;;;;36.05;19.43;99536.31;4346788;33;34485;-73
2022/08/05 12:38:57;;;;;;;;;;;;;;;36.19;18.92;99544.59;4333185;33;33595;-69
2022/08/05 12:41:32;;;;;;;;;;;;;;;36.08;18.80;99530.59;4346892;33;34809;-67
2022/08/05 12:44:02;;;;;;;;;;;;;;;36.29;19.11;99535.13;4346176;33;34316;-68
2022/08/05 12:46:31;;;;;;;;;;;;;;;36.16;18.84;99534.16;4344709;32;34180;-68
2022/08/05 12:49:00;;;;;;;;;;;;;;;36.49;19.30;99538.00;4347056;33;33312;-69
2022/08/05 12:51:42;;;;;;;;;;;;;;;36.55;19.49;99535.50;4335073;33;34934;-68
2022/08/05 12:54:30;;;;;;;;;;;;;;;37.09;18.81;99528.87;4346509;32;35316;-70
2022/08/05 12:56:58;;;;;;;;;;;;;;;37.55;18.01;99533.50;4345075;33;34420;-68
2022/08/05 12:59:26;;;;;;;;;;;;;;;36.90;18.11;99536.87;4345704;33;34820;-69
2022/08/05 13:02:15;;;;;;;;;;;;;;;37.19;17.42;99532.69;4346052;33;34393;-72
2022/08/05 13:04:43;;;;;;;;;;;;;;;37.23;18.79;99524.94;4346438;33;34491;-73
2022/08/05 13:07:22;;;;;;;;;;;;;;;36.54;19.20;99519.75;4334475;33;35242;-68
2022/08/05 13:10:09;;;;;;;;;;;;;;;37.14;19.58;99517.03;4347018;33;34529;-71
2022/08/05 13:12:40;;;;;;;;;;;;;;;37.58;18.52;99506.37;4346998;33;34672;-70
2022/08/05 13:15:18;;;;;;;;;;;;;;;37.15;17.68;99507.28;4345956;33;33986;-67
2022/08/05 13:18:02;;;;;;;;;;;;;;;37.59;17.46;99510.03;4346192;33;35231;-67
2022/08/05 13:20:33;;;;;;;;;;;;;;;37.12;18.41;99499.69;4345820;32;33635;-70
2022/08/05 13:23:00;;;;;;;;;;;;;;;37.33;17.24;99498.44;4346922;33;34326;-71
2022/08/05 13:25:34;;;;;;;;;;;;;;;36.53;17.65;99495.56;4347187;33;34263;-71
2022/08/05 13:28:21;;;;;;;;;;;;;;;36.90;17.62;99496.50;4347020;33;35496;-68
2022/08/05 13:30:48;;;;;;;;;;;;;;;37.22;18.37;99498.69;4345124;33;33726;-70
2022/08/05 13:33:17;;;;;;;;;;;;;;;37.51;17.24;99483.88;4346794;33;33878;-71
2022/08/05 13:36:04;;;;;;;;;;;;;;;37.22;17.45;99487.38;4346450;33;34367;-70
2022/08/05 13:38:35;;;;;;;;;;;;;;;36.23;17.45;99477.53;4346161;33;35254;-73
2022/08/05 13:41:10;;;;;;;;;;;;;;;36.95;17.76;99482.63;4346623;33;33648;-69